Terminal Aerodrome Forecast
Issued by NWS Cleveland, OH

Home | Current Version | Previous Version | Graphics & Text | Print | Product List | Glossary On
Versions: 1 2 3 4 5 6 7 8 9 10 11 12 13
639
FTUS41 KCLE 191700 RRA
TAFTOL
TAF
KTOL 191746Z 1918/2018 29011KT P6SM OVC035
     FM200200 32008KT P6SM FEW250
     FM201300 02010KT P6SM SCT120 BKN250=

USA.gov is the U.S. government's official web portal to all federal, state and local government web resources and services.